createdAt,value
2016-12-30T00:00:21.749Z,1032.4
2016-12-30T00:01:03.235Z,1032.39
2016-12-30T00:03:34.226Z,1032.39
2016-12-30T00:04:15.997Z,1032.38
2016-12-30T00:04:57.560Z,1032.42
2016-12-30T00:05:39.024Z,1032.42
2016-12-30T00:06:20.813Z,1032.45
2016-12-30T00:07:02.414Z,1032.43
2016-12-30T00:07:44.218Z,1032.4
2016-12-30T00:08:25.951Z,1032.43
2016-12-30T00:09:07.737Z,1032.45
2016-12-30T00:09:49.426Z,1032.41
2016-12-30T00:10:31.006Z,1032.41
2016-12-30T00:11:12.839Z,1032.39
2016-12-30T00:11:54.615Z,1032.39
2016-12-30T00:12:36.333Z,1032.37
2016-12-30T00:13:18.157Z,1032.37
2016-12-30T00:13:59.906Z,1032.37
2016-12-30T00:14:41.756Z,1032.37
2016-12-30T00:15:23.535Z,1032.36
2016-12-30T00:16:05.184Z,1032.39
2016-12-30T00:16:46.946Z,1032.37
2016-12-30T00:17:28.678Z,1032.36
2016-12-30T00:18:10.466Z,1032.34
2016-12-30T00:18:52.228Z,1032.34
2016-12-30T00:19:34.033Z,1032.31
2016-12-30T00:20:15.873Z,1032.37
2016-12-30T00:20:57.594Z,1032.33
2016-12-30T00:21:39.363Z,1032.34
2016-12-30T00:22:21.076Z,1032.31
2016-12-30T00:23:02.873Z,1032.32
2016-12-30T00:23:44.590Z,1032.37
2016-12-30T00:24:26.222Z,1032.36
2016-12-30T00:25:07.934Z,1032.37
2016-12-30T00:25:49.534Z,1032.34
2016-12-30T00:26:31.382Z,1032.34
2016-12-30T00:29:02.560Z,1032.29
2016-12-30T00:29:44.347Z,1032.32
2016-12-30T00:32:15.424Z,1032.27
2016-12-30T00:32:57.080Z,1032.27
2016-12-30T00:33:38.645Z,1032.26
2016-12-30T00:34:20.219Z,1032.26
2016-12-30T00:36:20.414Z,1032.26
2016-12-30T00:37:01.952Z,1032.31
2016-12-30T00:37:43.817Z,1032.32
2016-12-30T00:38:25.598Z,1032.31
2016-12-30T00:39:07.319Z,1032.35
2016-12-30T00:39:49.120Z,1032.32
2016-12-30T00:40:30.847Z,1032.34
2016-12-30T00:42:51.614Z,1032.34
2016-12-30T00:43:33.345Z,1032.37
2016-12-30T00:44:15.112Z,1032.34
2016-12-30T00:44:56.919Z,1032.3
2016-12-30T00:45:38.629Z,1032.29
2016-12-30T00:46:20.446Z,1032.28
2016-12-30T00:47:01.932Z,1032.27
2016-12-30T00:47:43.777Z,1032.23
2016-12-30T00:48:25.570Z,1032.21
2016-12-30T00:49:07.397Z,1032.23
2016-12-30T00:51:07.485Z,1032.18
2016-12-30T00:51:49.176Z,1032.18
2016-12-30T00:52:30.918Z,1032.19
2016-12-30T00:53:12.399Z,1032.18
2016-12-30T00:53:54.093Z,1032.2
2016-12-30T00:54:35.868Z,1032.15
2016-12-30T00:55:17.595Z,1032.19
2016-12-30T00:55:59.190Z,1032.2
2016-12-30T00:56:40.926Z,1032.2
2016-12-30T00:57:22.528Z,1032.18
2016-12-30T00:59:22.596Z,1032.22
2016-12-30T01:01:22.548Z,1032.2
2016-12-30T01:02:04.120Z,1032.23
2016-12-30T01:02:45.831Z,1032.2
2016-12-30T01:03:27.255Z,1032.23
2016-12-30T01:04:09.015Z,1032.22
2016-12-30T01:04:50.231Z,1032.27
2016-12-30T01:05:32.047Z,1032.21
2016-12-30T01:06:13.576Z,1032.2
2016-12-30T01:06:55.143Z,1032.23
2016-12-30T01:07:36.872Z,1032.19
2016-12-30T01:08:18.498Z,1032.29
2016-12-30T01:09:00.003Z,1032.24
2016-12-30T01:10:55.099Z,1032.22
2016-12-30T01:11:36.731Z,1032.29
2016-12-30T01:12:18.515Z,1032.34
2016-12-30T01:13:00.307Z,1032.29
2016-12-30T01:13:42.036Z,1032.32
2016-12-30T01:14:23.786Z,1032.3
2016-12-30T01:15:05.557Z,1032.35
2016-12-30T01:15:47.371Z,1032.35
2016-12-30T01:16:29.173Z,1032.35
2016-12-30T01:17:10.940Z,1032.33
2016-12-30T01:17:52.684Z,1032.26
2016-12-30T01:18:34.409Z,1032.32
2016-12-30T01:19:16.120Z,1032.29
2016-12-30T01:19:57.961Z,1032.29
2016-12-30T01:20:39.730Z,1032.27
2016-12-30T01:21:21.416Z,1032.32
2016-12-30T01:22:03.062Z,1032.28
2016-12-30T01:22:44.860Z,1032.3
2016-12-30T01:23:26.621Z,1032.33
2016-12-30T01:24:08.403Z,1032.31
2016-12-30T01:24:50.154Z,1032.25
2016-12-30T01:25:31.941Z,1032.29
2016-12-30T01:26:13.600Z,1032.28
2016-12-30T01:26:55.373Z,1032.29
2016-12-30T01:27:37.035Z,1032.27
2016-12-30T01:28:18.795Z,1032.31
2016-12-30T01:29:00.332Z,1032.3
2016-12-30T01:29:41.987Z,1032.27
2016-12-30T01:30:23.615Z,1032.33
2016-12-30T01:31:05.301Z,1032.34
2016-12-30T01:33:05.427Z,1032.35
2016-12-30T01:33:47.058Z,1032.32
2016-12-30T01:34:28.617Z,1032.31
2016-12-30T01:35:10.303Z,1032.31
2016-12-30T01:35:51.935Z,1032.32
2016-12-30T01:36:33.574Z,1032.34
2016-12-30T01:37:15.023Z,1032.32
2016-12-30T01:39:35.844Z,1032.31
2016-12-30T01:40:17.326Z,1032.32
2016-12-30T01:40:59.079Z,1032.28
2016-12-30T01:41:40.799Z,1032.28
2016-12-30T01:42:22.517Z,1032.25
2016-12-30T01:43:03.912Z,1032.27
2016-12-30T01:43:45.421Z,1032.27
2016-12-30T01:44:27.193Z,1032.3
2016-12-30T01:45:08.983Z,1032.27
2016-12-30T01:45:50.755Z,1032.29
2016-12-30T01:48:21.790Z,1032.23
2016-12-30T01:49:03.460Z,1032.19
2016-12-30T01:49:45.053Z,1032.17
2016-12-30T01:50:26.831Z,1032.19
2016-12-30T01:52:26.798Z,1032.24
2016-12-30T01:53:08.444Z,1032.17
2016-12-30T01:53:50.156Z,1032.16
2016-12-30T01:54:31.902Z,1032.14
2016-12-30T01:56:31.910Z,1032.12
2016-12-30T01:57:13.620Z,1032.15
2016-12-30T01:59:29.029Z,1032.08
2016-12-30T02:00:10.135Z,1032.06
2016-12-30T02:00:50.656Z,1032.1
2016-12-30T02:01:31.158Z,1032.11
2016-12-30T02:02:11.651Z,1032.1
2016-12-30T02:02:52.146Z,1032.11
2016-12-30T02:03:32.635Z,1032.1
2016-12-30T02:04:13.143Z,1032.11
2016-12-30T02:04:53.649Z,1032.17
2016-12-30T02:05:34.178Z,1032.11
2016-12-30T02:06:14.678Z,1032.1
2016-12-30T02:06:55.214Z,1032.14
2016-12-30T02:07:35.725Z,1032.1
2016-12-30T02:08:16.237Z,1032.13
2016-12-30T02:08:56.768Z,1032.1
2016-12-30T02:09:37.280Z,1032.1
2016-12-30T02:10:17.771Z,1032.08
2016-12-30T02:10:58.268Z,1032.14
2016-12-30T02:11:38.793Z,1032.1
2016-12-30T02:12:19.307Z,1032.07
2016-12-30T02:12:59.835Z,1032.06
2016-12-30T02:13:40.372Z,1032.08
2016-12-30T02:14:20.886Z,1032.08
2016-12-30T02:15:01.409Z,1032.05
2016-12-30T02:15:41.941Z,1032.09
2016-12-30T02:16:22.448Z,1032.06
2016-12-30T02:17:02.926Z,1032.09
2016-12-30T02:17:43.427Z,1032.06
2016-12-30T02:18:23.911Z,1032.06
2016-12-30T02:19:04.455Z,1032.08
2016-12-30T02:19:44.926Z,1032.08
2016-12-30T02:20:25.441Z,1032.08
2016-12-30T02:21:05.955Z,1032.11
2016-12-30T02:21:46.475Z,1032.09
2016-12-30T02:22:26.992Z,1032.04
2016-12-30T02:23:07.476Z,1032.07
2016-12-30T02:23:47.980Z,1032.05
2016-12-30T02:24:28.504Z,1032.07
2016-12-30T02:25:09.006Z,1032.07
2016-12-30T02:25:49.520Z,1032.02
2016-12-30T02:26:30.024Z,1032.06
2016-12-30T02:27:10.530Z,1032.07
2016-12-30T02:27:51.051Z,1032.06
2016-12-30T02:28:31.547Z,1032.07
2016-12-30T02:29:12.067Z,1032.06
2016-12-30T02:29:52.567Z,1032.07
2016-12-30T02:30:33.076Z,1032.05
2016-12-30T02:31:13.604Z,1032.01
2016-12-30T02:31:54.122Z,1032.02
2016-12-30T02:32:34.664Z,1032
2016-12-30T02:33:15.185Z,1032.03
2016-12-30T02:33:55.698Z,1032.01
2016-12-30T02:34:36.218Z,1032.01
2016-12-30T02:35:16.741Z,1032.02
2016-12-30T02:35:57.259Z,1032.03
2016-12-30T02:36:37.780Z,1032.06
2016-12-30T02:37:18.305Z,1032.05
2016-12-30T02:37:58.837Z,1032.02
2016-12-30T02:38:39.365Z,1032.04
2016-12-30T02:39:19.873Z,1032.04
2016-12-30T02:40:00.404Z,1032.02
2016-12-30T02:40:40.944Z,1032
2016-12-30T02:41:21.441Z,1032.04
2016-12-30T02:42:01.944Z,1032.01
2016-12-30T02:42:42.475Z,1032.03
2016-12-30T02:43:23.003Z,1032.05
2016-12-30T02:44:03.523Z,1032.03
2016-12-30T02:44:44.061Z,1032.01
2016-12-30T02:45:24.642Z,1032.01
2016-12-30T02:46:05.171Z,1032.05
2016-12-30T02:46:45.698Z,1032.06
2016-12-30T02:47:26.234Z,1032.07
2016-12-30T02:48:06.770Z,1032.04
2016-12-30T02:48:47.280Z,1032.08
2016-12-30T02:49:27.790Z,1032.12
2016-12-30T02:50:08.280Z,1032.09
2016-12-30T02:50:48.779Z,1032.09
2016-12-30T02:51:29.298Z,1032.1
2016-12-30T02:52:09.762Z,1032.11
2016-12-30T02:52:50.269Z,1032.16
2016-12-30T02:53:30.788Z,1032.16
2016-12-30T02:54:11.312Z,1032.17
2016-12-30T02:54:51.838Z,1032.14
2016-12-30T02:55:32.363Z,1032.16
2016-12-30T02:56:12.893Z,1032.14
2016-12-30T02:56:53.422Z,1032.15
2016-12-30T02:57:33.950Z,1032.12
2016-12-30T02:58:14.478Z,1032.13
2016-12-30T02:58:54.998Z,1032.11
2016-12-30T02:59:35.568Z,1032.16
2016-12-30T03:00:16.089Z,1032.12
2016-12-30T03:00:56.620Z,1032.09
2016-12-30T03:01:37.143Z,1032.11
2016-12-30T03:02:17.681Z,1032.1
2016-12-30T03:02:58.186Z,1032.09
2016-12-30T03:03:38.684Z,1032.06
2016-12-30T03:04:19.165Z,1032.07
2016-12-30T03:04:59.679Z,1032.06
2016-12-30T03:05:40.199Z,1032.03
2016-12-30T03:06:20.728Z,1032.03
2016-12-30T03:07:01.231Z,1032.06
2016-12-30T03:07:41.748Z,1032.09
2016-12-30T03:08:22.276Z,1032.08
2016-12-30T03:09:02.804Z,1032.05
2016-12-30T03:09:43.327Z,1032.06
2016-12-30T03:10:23.859Z,1032.07
2016-12-30T03:11:04.392Z,1032.06
2016-12-30T03:11:44.924Z,1032.11
2016-12-30T03:12:25.459Z,1032.1
2016-12-30T03:13:05.985Z,1032.06
2016-12-30T03:13:46.506Z,1032.09
2016-12-30T03:14:26.998Z,1032.1
2016-12-30T03:15:07.510Z,1032.06
2016-12-30T03:15:48.041Z,1032.01
2016-12-30T03:16:28.556Z,1032.05
2016-12-30T03:17:09.087Z,1032.02
2016-12-30T03:17:49.589Z,1032.01
2016-12-30T03:18:30.086Z,1032.03
2016-12-30T03:19:10.626Z,1032.02
2016-12-30T03:19:51.149Z,1032.02
2016-12-30T03:20:31.677Z,1031.98
2016-12-30T03:21:12.181Z,1031.97
2016-12-30T03:21:52.689Z,1032
2016-12-30T03:22:33.216Z,1031.99
2016-12-30T03:23:13.727Z,1031.98
2016-12-30T03:23:54.242Z,1032
2016-12-30T03:24:34.743Z,1031.98
2016-12-30T03:25:15.259Z,1031.94
2016-12-30T03:25:55.802Z,1031.91
2016-12-30T03:26:36.334Z,1031.95
2016-12-30T03:27:16.841Z,1031.91
2016-12-30T03:27:57.434Z,1031.89
2016-12-30T03:28:37.922Z,1031.87
2016-12-30T03:29:18.444Z,1031.89
2016-12-30T03:29:58.967Z,1031.83
2016-12-30T03:30:39.501Z,1031.89
2016-12-30T03:31:20.027Z,1031.87
2016-12-30T03:32:00.546Z,1031.85
2016-12-30T03:32:41.061Z,1031.84
2016-12-30T03:33:21.584Z,1031.85
2016-12-30T03:34:02.091Z,1031.84
2016-12-30T03:34:42.629Z,1031.83
2016-12-30T03:35:23.117Z,1031.8
2016-12-30T03:36:03.656Z,1031.82
2016-12-30T03:36:44.170Z,1031.84
2016-12-30T03:37:24.706Z,1031.82
2016-12-30T03:38:05.196Z,1031.82
2016-12-30T03:38:45.733Z,1031.82
2016-12-30T03:39:26.247Z,1031.84
2016-12-30T03:40:06.740Z,1031.82
2016-12-30T03:40:47.273Z,1031.82
2016-12-30T03:41:27.787Z,1031.84
2016-12-30T03:42:08.302Z,1031.82
2016-12-30T03:42:48.858Z,1031.88
2016-12-30T03:43:29.387Z,1031.87
2016-12-30T03:44:09.920Z,1031.89
2016-12-30T03:44:50.437Z,1031.89
2016-12-30T03:45:30.966Z,1031.91
2016-12-30T03:46:11.467Z,1031.96
2016-12-30T03:46:51.983Z,1031.96
2016-12-30T03:47:32.496Z,1032.04
2016-12-30T03:48:12.986Z,1031.97
2016-12-30T03:48:53.511Z,1032.02
2016-12-30T03:49:34.003Z,1032.01
2016-12-30T03:50:14.533Z,1032.03
2016-12-30T03:50:55.025Z,1032
2016-12-30T03:51:35.522Z,1032.03
2016-12-30T03:52:16.053Z,1032.02
2016-12-30T03:52:56.581Z,1032.05
2016-12-30T03:53:37.106Z,1032.04
2016-12-30T03:54:17.618Z,1032.01
2016-12-30T03:54:58.133Z,1032.05
2016-12-30T03:55:38.671Z,1032.05
2016-12-30T03:56:19.190Z,1032.05
2016-12-30T03:56:59.700Z,1032.07
2016-12-30T03:57:40.210Z,1032.06
2016-12-30T03:58:20.760Z,1032.07
2016-12-30T03:59:01.287Z,1032.03
2016-12-30T03:59:41.801Z,1032.08
2016-12-30T04:00:22.287Z,1032.05
2016-12-30T04:01:02.805Z,1032.08
2016-12-30T04:01:43.324Z,1032.06
2016-12-30T04:02:23.820Z,1032.07
2016-12-30T04:03:04.304Z,1032.08
2016-12-30T04:03:44.811Z,1032.05
2016-12-30T04:04:25.352Z,1032.1
2016-12-30T04:05:05.842Z,1032.06
2016-12-30T04:05:46.360Z,1032.04
2016-12-30T04:06:26.875Z,1032.02
2016-12-30T04:07:07.375Z,1032.05
2016-12-30T04:07:47.897Z,1032.05
2016-12-30T04:08:28.420Z,1032.06
2016-12-30T04:09:08.963Z,1032.03
2016-12-30T04:09:49.466Z,1032.06
2016-12-30T04:10:29.998Z,1032.05
2016-12-30T04:11:10.511Z,1032.02
2016-12-30T04:11:51.030Z,1032.03
2016-12-30T04:12:31.536Z,1032.04
2016-12-30T04:13:12.072Z,1032.03
2016-12-30T04:13:52.587Z,1032.04
2016-12-30T04:14:33.110Z,1032.08
2016-12-30T04:15:13.647Z,1032.07
2016-12-30T04:15:54.176Z,1032.06
2016-12-30T04:16:34.682Z,1032.06
2016-12-30T04:17:15.209Z,1032.06
2016-12-30T04:17:55.747Z,1032.07
2016-12-30T04:18:36.278Z,1032.05
2016-12-30T04:19:16.780Z,1032.05
2016-12-30T04:19:57.302Z,1032.1
2016-12-30T04:20:37.824Z,1032.09
2016-12-30T04:21:18.346Z,1032.02
2016-12-30T04:21:58.882Z,1032.06
2016-12-30T04:22:39.390Z,1032.02
2016-12-30T04:23:19.895Z,1032.03
2016-12-30T04:24:00.401Z,1032.07
2016-12-30T04:24:40.920Z,1032.06
2016-12-30T04:25:21.439Z,1032.03
2016-12-30T04:26:01.979Z,1032.02
2016-12-30T04:26:42.499Z,1032.05
2016-12-30T04:27:23.028Z,1032.07
2016-12-30T04:28:03.546Z,1032.04
2016-12-30T04:28:44.072Z,1032.07
2016-12-30T04:29:24.602Z,1032.09
2016-12-30T04:30:05.130Z,1032.09
2016-12-30T04:30:45.627Z,1032.1
2016-12-30T04:31:26.150Z,1032.08
2016-12-30T04:32:06.648Z,1032.08
2016-12-30T04:32:47.154Z,1032.11
2016-12-30T04:33:27.672Z,1032.13
2016-12-30T04:34:08.186Z,1032.14
2016-12-30T04:34:48.709Z,1032.12
2016-12-30T04:35:29.191Z,1032.1
2016-12-30T04:36:09.707Z,1032.11
2016-12-30T04:36:50.225Z,1032.14
2016-12-30T04:37:30.714Z,1032.11
2016-12-30T04:38:11.251Z,1032.11
2016-12-30T04:38:51.782Z,1032.16
2016-12-30T04:39:32.311Z,1032.11
2016-12-30T04:40:12.822Z,1032.16
2016-12-30T04:40:53.344Z,1032.12
2016-12-30T04:41:33.859Z,1032.13
2016-12-30T04:42:14.387Z,1032.14
2016-12-30T04:42:54.924Z,1032.1
2016-12-30T04:43:35.449Z,1032.12
2016-12-30T04:44:15.971Z,1032.1
2016-12-30T04:44:56.489Z,1032.12
2016-12-30T04:45:37.009Z,1032.11
2016-12-30T04:46:17.528Z,1032.12
2016-12-30T04:46:58.045Z,1032.08
2016-12-30T04:47:38.607Z,1032.08
2016-12-30T04:48:19.128Z,1032.05
2016-12-30T04:48:59.662Z,1032.05
2016-12-30T04:49:40.187Z,1032.01
2016-12-30T04:50:20.698Z,1032.03
2016-12-30T04:51:01.237Z,1032.02
2016-12-30T04:51:41.764Z,1032.02
2016-12-30T04:52:22.297Z,1031.97
2016-12-30T04:53:02.824Z,1031.98
2016-12-30T04:53:43.355Z,1031.97
2016-12-30T04:54:23.882Z,1032.01
2016-12-30T04:55:04.407Z,1032
2016-12-30T04:55:44.901Z,1032
2016-12-30T04:56:25.402Z,1031.99
2016-12-30T04:57:05.909Z,1031.98
2016-12-30T04:57:46.422Z,1031.98
2016-12-30T04:58:26.959Z,1031.99
2016-12-30T04:59:07.475Z,1032.01
2016-12-30T04:59:48.000Z,1031.98
2016-12-30T05:00:28.519Z,1031.96
2016-12-30T05:01:09.048Z,1032
2016-12-30T05:01:49.567Z,1031.97
2016-12-30T05:02:30.085Z,1031.94
2016-12-30T05:03:10.611Z,1031.97
2016-12-30T05:03:51.108Z,1031.94
2016-12-30T05:04:31.617Z,1031.95
2016-12-30T05:05:12.137Z,1031.98
2016-12-30T05:05:52.649Z,1031.95
2016-12-30T05:06:33.163Z,1031.97
2016-12-30T05:07:13.675Z,1032
2016-12-30T05:07:54.180Z,1031.99
2016-12-30T05:08:34.720Z,1032.02
2016-12-30T05:09:15.263Z,1032
2016-12-30T05:09:55.784Z,1032.02
2016-12-30T05:10:38.209Z,1031.96
2016-12-30T05:11:18.722Z,1031.98
2016-12-30T05:11:59.893Z,1032.04
2016-12-30T05:12:40.374Z,1031.98
2016-12-30T05:13:20.895Z,1032
2016-12-30T05:14:01.400Z,1031.97
2016-12-30T05:14:41.928Z,1031.96
2016-12-30T05:15:22.455Z,1031.99
2016-12-30T05:16:02.990Z,1031.93
2016-12-30T05:16:43.505Z,1031.94
2016-12-30T05:17:24.027Z,1031.92
2016-12-30T05:18:04.560Z,1031.91
2016-12-30T05:18:45.083Z,1031.89
2016-12-30T05:19:25.610Z,1031.89
2016-12-30T05:20:06.112Z,1031.89
2016-12-30T05:20:46.651Z,1031.87
2016-12-30T05:21:27.153Z,1031.85
2016-12-30T05:22:07.675Z,1031.88
2016-12-30T05:22:48.204Z,1031.82
2016-12-30T05:23:28.730Z,1031.88
2016-12-30T05:24:09.252Z,1031.9
2016-12-30T05:24:49.779Z,1031.85
2016-12-30T05:25:30.306Z,1031.87
2016-12-30T05:26:10.838Z,1031.88
2016-12-30T05:26:51.365Z,1031.84
2016-12-30T05:27:31.895Z,1031.84
2016-12-30T05:28:12.411Z,1031.84
2016-12-30T05:28:52.931Z,1031.82
2016-12-30T05:29:33.449Z,1031.81
2016-12-30T05:30:13.988Z,1031.74
2016-12-30T05:30:54.512Z,1031.76
2016-12-30T05:31:35.056Z,1031.77
2016-12-30T05:32:15.610Z,1031.77
2016-12-30T05:32:56.141Z,1031.74
2016-12-30T05:33:36.679Z,1031.78
2016-12-30T05:34:17.189Z,1031.74
2016-12-30T05:34:57.720Z,1031.79
2016-12-30T05:35:38.255Z,1031.72
2016-12-30T05:36:18.779Z,1031.75
2016-12-30T05:36:59.311Z,1031.78
2016-12-30T05:37:39.832Z,1031.78
2016-12-30T05:38:20.362Z,1031.76
2016-12-30T05:39:00.906Z,1031.75
2016-12-30T05:39:41.421Z,1031.81
2016-12-30T05:40:21.955Z,1031.83
2016-12-30T05:41:02.485Z,1031.81
2016-12-30T05:41:43.014Z,1031.83
2016-12-30T05:42:23.561Z,1031.84
2016-12-30T05:43:04.095Z,1031.89
2016-12-30T05:43:44.624Z,1031.87
2016-12-30T05:44:25.158Z,1031.84
2016-12-30T05:45:05.684Z,1031.88
2016-12-30T05:45:46.222Z,1031.91
2016-12-30T05:46:26.729Z,1031.91
2016-12-30T05:47:07.259Z,1031.9
2016-12-30T05:47:47.798Z,1031.93
2016-12-30T05:48:28.328Z,1031.96
2016-12-30T05:49:08.863Z,1031.99
2016-12-30T05:49:49.400Z,1031.99
2016-12-30T05:50:29.925Z,1031.98
2016-12-30T05:51:10.455Z,1031.97
2016-12-30T05:51:50.986Z,1031.99
2016-12-30T05:52:31.521Z,1031.99
2016-12-30T05:53:12.034Z,1032.01
2016-12-30T05:53:52.594Z,1031.98
2016-12-30T05:54:33.131Z,1032.02
2016-12-30T05:55:13.642Z,1031.99
2016-12-30T05:55:54.170Z,1032.06
2016-12-30T05:56:34.683Z,1032.05
2016-12-30T05:57:15.210Z,1032.02
2016-12-30T05:57:55.744Z,1032.06
2016-12-30T05:58:36.265Z,1032.01
2016-12-30T05:59:16.782Z,1032.02
2016-12-30T05:59:57.315Z,1032.03
2016-12-30T06:00:37.869Z,1032.03
2016-12-30T06:01:18.397Z,1032.04
2016-12-30T06:01:58.928Z,1032.04
2016-12-30T06:02:39.437Z,1032.04
2016-12-30T06:03:19.944Z,1032.05
2016-12-30T06:04:00.480Z,1032.06
2016-12-30T06:04:41.012Z,1032.07
2016-12-30T06:05:21.534Z,1032.09
2016-12-30T06:06:02.059Z,1032.12
2016-12-30T06:06:42.593Z,1032.11
2016-12-30T06:07:23.131Z,1032.09
2016-12-30T06:08:03.640Z,1032.1
2016-12-30T06:08:44.172Z,1032.07
2016-12-30T06:09:24.719Z,1032.06
2016-12-30T06:10:05.246Z,1032.11
2016-12-30T06:10:45.774Z,1032.11
2016-12-30T06:11:26.288Z,1032.07
2016-12-30T06:12:06.819Z,1032.09
2016-12-30T06:12:47.352Z,1032.02
2016-12-30T06:13:27.887Z,1032.07
2016-12-30T06:14:08.425Z,1032.08
2016-12-30T06:14:48.954Z,1032.07
2016-12-30T06:15:29.490Z,1032.07
2016-12-30T06:16:10.021Z,1032.1
2016-12-30T06:16:50.527Z,1032.08
2016-12-30T06:17:31.080Z,1032.08
2016-12-30T06:18:11.604Z,1032.1
2016-12-30T06:18:52.140Z,1032.08
2016-12-30T06:19:32.659Z,1032.11
2016-12-30T06:20:13.211Z,1032.12
2016-12-30T06:20:53.739Z,1032.1
2016-12-30T06:21:34.266Z,1032.18
2016-12-30T06:22:14.795Z,1032.11
2016-12-30T06:22:55.317Z,1032.14
2016-12-30T06:23:35.854Z,1032.12
2016-12-30T06:24:16.382Z,1032.18
2016-12-30T06:24:56.908Z,1032.13
2016-12-30T06:25:37.429Z,1032.12
2016-12-30T06:26:17.959Z,1032.14
2016-12-30T06:26:58.491Z,1032.14
2016-12-30T06:27:39.034Z,1032.18
2016-12-30T06:28:19.575Z,1032.18
2016-12-30T06:29:00.091Z,1032.21
2016-12-30T06:29:40.620Z,1032.2
2016-12-30T06:30:21.152Z,1032.21
2016-12-30T06:31:01.650Z,1032.18
2016-12-30T06:31:42.180Z,1032.23
2016-12-30T06:32:22.712Z,1032.23
2016-12-30T06:33:03.243Z,1032.23
2016-12-30T06:33:43.760Z,1032.25
2016-12-30T06:34:24.286Z,1032.27
2016-12-30T06:35:04.818Z,1032.22
2016-12-30T06:35:45.337Z,1032.33
2016-12-30T06:36:25.877Z,1032.29
2016-12-30T06:37:06.412Z,1032.29
2016-12-30T06:37:46.922Z,1032.34
2016-12-30T06:38:27.540Z,1032.35
2016-12-30T06:39:08.058Z,1032.33
2016-12-30T06:39:48.566Z,1032.34
2016-12-30T06:40:29.082Z,1032.35
2016-12-30T06:41:09.604Z,1032.38
2016-12-30T06:41:50.134Z,1032.32
2016-12-30T06:42:30.641Z,1032.34
2016-12-30T06:43:11.153Z,1032.36
2016-12-30T06:43:51.679Z,1032.37
2016-12-30T06:44:32.191Z,1032.33
2016-12-30T06:45:12.697Z,1032.32
2016-12-30T06:45:53.225Z,1032.32
2016-12-30T06:46:33.759Z,1032.35
2016-12-30T06:47:14.271Z,1032.33
2016-12-30T06:47:54.791Z,1032.3
2016-12-30T06:48:35.348Z,1032.31
2016-12-30T06:49:15.865Z,1032.3
2016-12-30T06:49:56.393Z,1032.33
2016-12-30T06:50:36.919Z,1032.28
2016-12-30T06:51:17.440Z,1032.34
2016-12-30T06:51:57.976Z,1032.33
2016-12-30T06:52:38.509Z,1032.34
2016-12-30T06:53:19.029Z,1032.34
2016-12-30T06:53:59.559Z,1032.35
2016-12-30T06:54:40.101Z,1032.37
2016-12-30T06:55:20.612Z,1032.33
2016-12-30T06:56:01.116Z,1032.36
2016-12-30T06:56:41.650Z,1032.35
2016-12-30T06:57:22.174Z,1032.34
2016-12-30T06:58:02.703Z,1032.29
2016-12-30T06:58:43.234Z,1032.29
2016-12-30T06:59:23.761Z,1032.29
2016-12-30T07:00:04.293Z,1032.29
2016-12-30T07:00:44.821Z,1032.32
2016-12-30T07:01:25.360Z,1032.33
2016-12-30T07:02:05.890Z,1032.36
2016-12-30T07:02:46.395Z,1032.31
2016-12-30T07:03:26.930Z,1032.3
2016-12-30T07:04:07.449Z,1032.35
2016-12-30T07:04:47.972Z,1032.37
2016-12-30T07:05:28.486Z,1032.37
2016-12-30T07:06:09.006Z,1032.39
2016-12-30T07:06:49.537Z,1032.44
2016-12-30T07:07:30.069Z,1032.46
2016-12-30T07:08:10.581Z,1032.41
2016-12-30T07:08:51.108Z,1032.47
2016-12-30T07:09:31.661Z,1032.46
2016-12-30T07:10:12.165Z,1032.48
2016-12-30T07:10:52.688Z,1032.46
2016-12-30T07:11:33.196Z,1032.44
2016-12-30T07:12:13.710Z,1032.48
2016-12-30T07:12:54.238Z,1032.44
2016-12-30T07:13:34.780Z,1032.48
2016-12-30T07:14:15.306Z,1032.43
2016-12-30T07:14:55.819Z,1032.44
2016-12-30T07:15:36.349Z,1032.47
2016-12-30T07:16:16.883Z,1032.48
2016-12-30T07:16:57.412Z,1032.5
2016-12-30T07:17:37.953Z,1032.48
2016-12-30T07:18:18.471Z,1032.5
2016-12-30T07:18:58.999Z,1032.47
2016-12-30T07:19:39.527Z,1032.46
2016-12-30T07:20:20.068Z,1032.47
2016-12-30T07:21:00.595Z,1032.45
2016-12-30T07:21:41.123Z,1032.44
2016-12-30T07:22:21.655Z,1032.45
2016-12-30T07:23:02.185Z,1032.45
2016-12-30T07:23:42.717Z,1032.48
2016-12-30T07:24:23.237Z,1032.49
2016-12-30T07:25:03.773Z,1032.43
2016-12-30T07:25:44.303Z,1032.45
2016-12-30T07:26:24.858Z,1032.44
2016-12-30T07:27:05.406Z,1032.42
2016-12-30T07:27:45.938Z,1032.41
2016-12-30T07:28:26.465Z,1032.44
2016-12-30T07:29:06.984Z,1032.47
2016-12-30T07:29:47.493Z,1032.43
2016-12-30T07:30:28.012Z,1032.47
2016-12-30T07:31:08.526Z,1032.49
2016-12-30T07:31:49.045Z,1032.5
2016-12-30T07:32:29.576Z,1032.52
2016-12-30T07:33:10.120Z,1032.52
2016-12-30T07:33:50.629Z,1032.5
2016-12-30T07:34:31.151Z,1032.51
2016-12-30T07:35:11.676Z,1032.47
2016-12-30T07:35:52.206Z,1032.47
2016-12-30T07:36:32.731Z,1032.49
2016-12-30T07:37:13.266Z,1032.48
2016-12-30T07:37:53.787Z,1032.46
2016-12-30T07:38:34.323Z,1032.5
2016-12-30T07:39:14.857Z,1032.54
2016-12-30T07:39:55.385Z,1032.5
2016-12-30T07:40:35.922Z,1032.52
2016-12-30T07:41:16.452Z,1032.51
2016-12-30T07:41:56.983Z,1032.52
2016-12-30T07:42:37.511Z,1032.46
2016-12-30T07:43:18.032Z,1032.5
2016-12-30T07:43:58.561Z,1032.47
2016-12-30T07:44:39.090Z,1032.46
2016-12-30T07:45:19.621Z,1032.5
2016-12-30T07:46:00.139Z,1032.49
2016-12-30T07:46:40.664Z,1032.51
2016-12-30T07:47:21.206Z,1032.5
2016-12-30T07:48:01.720Z,1032.55
2016-12-30T07:48:42.246Z,1032.48
2016-12-30T07:49:22.774Z,1032.51
2016-12-30T07:50:03.298Z,1032.5
2016-12-30T07:50:43.820Z,1032.51
2016-12-30T07:51:24.341Z,1032.5
2016-12-30T07:52:04.867Z,1032.53
2016-12-30T07:52:45.400Z,1032.53
2016-12-30T07:53:25.929Z,1032.55
2016-12-30T07:54:06.453Z,1032.52
2016-12-30T07:54:46.973Z,1032.54
2016-12-30T07:55:27.530Z,1032.54
2016-12-30T07:56:08.052Z,1032.53
2016-12-30T07:56:48.567Z,1032.52
2016-12-30T07:57:29.080Z,1032.52
2016-12-30T07:58:09.606Z,1032.55
2016-12-30T07:58:50.135Z,1032.55
2016-12-30T07:59:30.666Z,1032.55
2016-12-30T08:00:11.182Z,1032.57
2016-12-30T08:00:51.698Z,1032.58
2016-12-30T08:01:32.224Z,1032.56
2016-12-30T08:02:12.789Z,1032.61
2016-12-30T08:02:53.333Z,1032.57
2016-12-30T08:03:33.839Z,1032.57
2016-12-30T08:04:14.360Z,1032.59
2016-12-30T08:04:54.873Z,1032.58
2016-12-30T08:05:35.394Z,1032.59
2016-12-30T08:06:15.922Z,1032.62
2016-12-30T08:06:56.474Z,1032.55
2016-12-30T08:07:37.006Z,1032.58
2016-12-30T08:08:17.552Z,1032.61
2016-12-30T08:08:58.071Z,1032.61
2016-12-30T08:09:38.630Z,1032.57
2016-12-30T08:10:19.138Z,1032.58
2016-12-30T08:10:59.658Z,1032.62
2016-12-30T08:11:40.180Z,1032.67
2016-12-30T08:12:20.698Z,1032.63
2016-12-30T08:13:01.185Z,1032.62
2016-12-30T08:13:41.709Z,1032.65
2016-12-30T08:14:22.224Z,1032.63
2016-12-30T08:15:02.735Z,1032.65
2016-12-30T08:15:43.271Z,1032.66
2016-12-30T08:16:23.837Z,1032.65
2016-12-30T08:17:04.387Z,1032.63
2016-12-30T08:17:44.900Z,1032.65
2016-12-30T08:18:25.417Z,1032.64
2016-12-30T08:19:06.128Z,1032.62
2016-12-30T08:19:46.645Z,1032.67
2016-12-30T08:20:27.151Z,1032.66
2016-12-30T08:21:07.680Z,1032.69
2016-12-30T08:21:48.184Z,1032.69
2016-12-30T08:22:28.701Z,1032.68
2016-12-30T08:23:09.266Z,1032.69
2016-12-30T08:23:49.792Z,1032.68
2016-12-30T08:24:30.321Z,1032.71
2016-12-30T08:25:10.822Z,1032.72
2016-12-30T08:25:51.352Z,1032.72
2016-12-30T08:26:31.881Z,1032.76
2016-12-30T08:27:12.406Z,1032.75
2016-12-30T08:27:52.925Z,1032.79
2016-12-30T08:28:33.456Z,1032.8
2016-12-30T08:29:13.990Z,1032.79
2016-12-30T08:29:54.503Z,1032.82
2016-12-30T08:30:35.014Z,1032.8
2016-12-30T08:31:15.545Z,1032.79
2016-12-30T08:31:56.138Z,1032.76
2016-12-30T08:32:36.672Z,1032.78
2016-12-30T08:33:17.193Z,1032.7
2016-12-30T08:33:57.722Z,1032.69
2016-12-30T08:34:38.255Z,1032.76
2016-12-30T08:35:18.817Z,1032.73
2016-12-30T08:35:59.292Z,1032.75
2016-12-30T08:36:39.800Z,1032.72
2016-12-30T08:37:20.285Z,1032.7